sensor_id;sensor_type;location;lat;lon;timestamp;pressure;altitude;pressure_sealevel;temperature;humidity
62402;BME280;48440;51.224;22.506;2022-09-24T00:00:28;99281.03;;;8.71;68.04
62402;BME280;48440;51.224;22.506;2022-09-24T00:02:55;99273.34;;;8.80;68.17
62402;BME280;48440;51.224;22.506;2022-09-24T00:05:20;99272.75;;;8.78;68.13
62402;BME280;48440;51.224;22.506;2022-09-24T00:07:46;99268.41;;;8.77;67.76
62402;BME280;48440;51.224;22.506;2022-09-24T00:10:11;99265.72;;;8.77;67.84
62402;BME280;48440;51.224;22.506;2022-09-24T00:12:37;99266.00;;;8.64;68.38
62402;BME280;48440;51.224;22.506;2022-09-24T00:15:04;99269.84;;;8.68;68.21
62402;BME280;48440;51.224;22.506;2022-09-24T00:17:29;99277.53;;;8.59;68.15
62402;BME280;48440;51.224;22.506;2022-09-24T00:19:55;99269.53;;;8.64;68.53
62402;BME280;48440;51.224;22.506;2022-09-24T00:22:20;99266.00;;;8.64;67.88
62402;BME280;48440;51.224;22.506;2022-09-24T00:24:46;99260.47;;;8.59;67.85
62402;BME280;48440;51.224;22.506;2022-09-24T00:27:30;99257.94;;;8.52;68.41
62402;BME280;48440;51.224;22.506;2022-09-24T00:29:56;99263.50;;;8.45;68.14
62402;BME280;48440;51.224;22.506;2022-09-24T00:32:21;99255.38;;;8.45;68.74
62402;BME280;48440;51.224;22.506;2022-09-24T00:34:48;99254.13;;;8.36;68.68
62402;BME280;48440;51.224;22.506;2022-09-24T00:37:16;99250.13;;;8.39;68.59
62402;BME280;48440;51.224;22.506;2022-09-24T00:39:43;99258.13;;;8.34;68.90
62402;BME280;48440;51.224;22.506;2022-09-24T00:42:11;99251.31;;;8.31;68.85
62402;BME280;48440;51.224;22.506;2022-09-24T00:44:53;99250.72;;;8.29;68.81
62402;BME280;48440;51.224;22.506;2022-09-24T00:53:14;99251.31;;;8.31;68.51
62402;BME280;48440;51.224;22.506;2022-09-24T00:55:43;99239.69;;;8.31;68.84
62402;BME280;48440;51.224;22.506;2022-09-24T00:58:11;99236.63;;;8.27;68.71
62402;BME280;48440;51.224;22.506;2022-09-24T01:00:40;99240.16;;;8.28;68.73
62402;BME280;48440;51.224;22.506;2022-09-24T01:03:22;99238.16;;;8.23;69.08
62402;BME280;48440;51.224;22.506;2022-09-24T01:05:49;99242.88;;;8.16;69.15
62402;BME280;48440;51.224;22.506;2022-09-24T01:08:16;99238.06;;;8.18;68.63
62402;BME280;48440;51.224;22.506;2022-09-24T01:11:24;99232.91;;;8.16;69.15
62402;BME280;48440;51.224;22.506;2022-09-24T01:19:36;99235.16;;;8.08;68.99
62402;BME280;48440;51.224;22.506;2022-09-24T01:25:00;99237.59;;;8.21;69.19
62402;BME280;48440;51.224;22.506;2022-09-24T01:30:31;99235.56;;;8.28;68.90
62402;BME280;48440;51.224;22.506;2022-09-24T01:33:04;99235.88;;;8.32;68.72
62402;BME280;48440;51.224;22.506;2022-09-24T01:35:36;99232.63;;;8.30;68.86
62402;BME280;48440;51.224;22.506;2022-09-24T01:38:06;99236.63;;;8.27;69.16
62402;BME280;48440;51.224;22.506;2022-09-24T01:40:33;99234.38;;;8.36;68.81
62402;BME280;48440;51.224;22.506;2022-09-24T01:43:01;99228.72;;;8.37;68.65
62402;BME280;48440;51.224;22.506;2022-09-24T01:45:28;99228.97;;;8.36;68.39
62402;BME280;48440;51.224;22.506;2022-09-24T01:47:55;99234.84;;;8.33;69.10
62402;BME280;48440;51.224;22.506;2022-09-24T01:50:23;99231.66;;;8.36;68.63
62402;BME280;48440;51.224;22.506;2022-09-24T01:53:01;99234.84;;;8.33;69.01
62402;BME280;48440;51.224;22.506;2022-09-24T01:55:35;99234.50;;;8.29;69.30
62402;BME280;48440;51.224;22.506;2022-09-24T01:58:18;99228.75;;;8.26;69.35
62402;BME280;48440;51.224;22.506;2022-09-24T02:00:47;99234.88;;;8.21;69.83
62402;BME280;48440;51.224;22.506;2022-09-24T02:03:16;99228.91;;;8.19;69.46
62402;BME280;48440;51.224;22.506;2022-09-24T02:05:50;99237.59;;;8.21;69.65
62402;BME280;48440;51.224;22.506;2022-09-24T02:08:21;99236.28;;;8.24;69.61
62402;BME280;48440;51.224;22.506;2022-09-24T02:10:55;99232.88;;;8.28;69.38
62402;BME280;48440;51.224;22.506;2022-09-24T02:13:25;99235.81;;;8.27;69.24
62402;BME280;48440;51.224;22.506;2022-09-24T02:15:57;99230.88;;;8.24;69.39
62402;BME280;48440;51.224;22.506;2022-09-24T02:18:28;99225.59;;;8.17;69.69
62402;BME280;48440;51.224;22.506;2022-09-24T02:20:58;99227.16;;;8.13;69.71
62402;BME280;48440;51.224;22.506;2022-09-24T02:23:24;99243.72;;;8.16;70.35
62402;BME280;48440;51.224;22.506;2022-09-24T02:25:56;99250.63;;;8.24;70.24
62402;BME280;48440;51.224;22.506;2022-09-24T02:28:23;99247.34;;;8.22;70.27
62402;BME280;48440;51.224;22.506;2022-09-24T02:30:53;99259.19;;;8.33;70.20
62402;BME280;48440;51.224;22.506;2022-09-24T02:33:22;99254.03;;;8.31;70.27
62402;BME280;48440;51.224;22.506;2022-09-24T02:36:07;99254.03;;;8.31;70.41
62402;BME280;48440;51.224;22.506;2022-09-24T02:38:33;99249.09;;;8.28;70.33
62402;BME280;48440;51.224;22.506;2022-09-24T02:40:59;99249.41;;;8.32;69.89
62402;BME280;48440;51.224;22.506;2022-09-24T02:43:25;99249.41;;;8.32;69.84
62402;BME280;48440;51.224;22.506;2022-09-24T02:45:51;99251.22;;;8.26;70.81
62402;BME280;48440;51.224;22.506;2022-09-24T02:48:16;99246.03;;;8.25;70.40
62402;BME280;48440;51.224;22.506;2022-09-24T02:50:42;99242.50;;;8.24;71.09
62402;BME280;48440;51.224;22.506;2022-09-24T02:53:08;99242.75;;;8.23;70.89
62402;BME280;48440;51.224;22.506;2022-09-24T02:55:34;99242.84;;;8.28;70.85
62402;BME280;48440;51.224;22.506;2022-09-24T02:57:59;99240.63;;;8.25;71.12
62402;BME280;48440;51.224;22.506;2022-09-24T03:00:24;99235.81;;;8.27;70.62
62402;BME280;48440;51.224;22.506;2022-09-24T03:02:50;99244.41;;;8.24;70.96
62402;BME280;48440;51.224;22.506;2022-09-24T03:05:16;99232.75;;;8.23;70.80
62402;BME280;48440;51.224;22.506;2022-09-24T03:07:43;99237.94;;;8.25;71.19
62402;BME280;48440;51.224;22.506;2022-09-24T03:10:09;99228.66;;;8.21;71.21
62402;BME280;48440;51.224;22.506;2022-09-24T03:12:35;99235.34;;;8.18;70.99
62402;BME280;48440;51.224;22.506;2022-09-24T03:15:01;99234.88;;;8.21;70.75
62402;BME280;48440;51.224;22.506;2022-09-24T03:17:27;99227.16;;;8.13;71.34
62402;BME280;48440;51.224;22.506;2022-09-24T03:19:53;99230.44;;;8.15;71.26
62402;BME280;48440;51.224;22.506;2022-09-24T03:22:18;99230.56;;;8.08;71.54
62402;BME280;48440;51.224;22.506;2022-09-24T03:24:44;99225.16;;;8.08;71.09
62402;BME280;48440;51.224;22.506;2022-09-24T03:27:10;99228.22;;;8.12;71.02
62402;BME280;48440;51.224;22.506;2022-09-24T03:29:35;99220.09;;;8.12;70.97
62402;BME280;48440;51.224;22.506;2022-09-24T03:32:20;99213.41;;;8.14;71.17
62402;BME280;48440;51.224;22.506;2022-09-24T03:34:46;99221.84;;;8.18;70.70
62402;BME280;48440;51.224;22.506;2022-09-24T03:37:11;99222.19;;;8.22;71.38
62402;BME280;48440;51.224;22.506;2022-09-24T03:39:38;99218.19;;;8.24;71.52
62402;BME280;48440;51.224;22.506;2022-09-24T03:42:04;99224.88;;;8.22;71.04
62402;BME280;48440;51.224;22.506;2022-09-24T03:44:29;99225.38;;;8.18;71.35
62402;BME280;48440;51.224;22.506;2022-09-24T03:46:55;99230.44;;;8.15;71.56
62402;BME280;48440;51.224;22.506;2022-09-24T03:49:21;99235.72;;;8.10;71.72
62402;BME280;48440;51.224;22.506;2022-09-24T03:51:48;99227.78;;;8.03;71.94
62402;BME280;48440;51.224;22.506;2022-09-24T03:54:14;99226.16;;;8.02;72.12
62402;BME280;48440;51.224;22.506;2022-09-24T03:56:41;99222.38;;;8.03;71.64
62402;BME280;48440;51.224;22.506;2022-09-24T03:59:10;99230.56;;;8.08;71.95
62402;BME280;48440;51.224;22.506;2022-09-24T04:01:36;99227.03;;;8.08;71.87
62402;BME280;48440;51.224;22.506;2022-09-24T04:04:03;99230.66;;;8.13;72.54
62402;BME280;48440;51.224;22.506;2022-09-24T04:06:29;99225.38;;;8.18;72.26
62402;BME280;48440;51.224;22.506;2022-09-24T04:08:55;99225.03;;;8.15;72.05
62402;BME280;48440;51.224;22.506;2022-09-24T04:11:22;99231.00;;;8.17;72.65
62402;BME280;48440;51.224;22.506;2022-09-24T04:13:48;99231.59;;;8.19;72.43
62402;BME280;48440;51.224;22.506;2022-09-24T04:16:14;99232.66;;;8.18;72.64
62402;BME280;48440;51.224;22.506;2022-09-24T04:18:39;99232.91;;;8.16;72.67
62402;BME280;48440;51.224;22.506;2022-09-24T04:21:06;99231.34;;;8.21;72.49
62402;BME280;48440;51.224;22.506;2022-09-24T04:23:31;99225.50;;;8.12;72.67
62402;BME280;48440;51.224;22.506;2022-09-24T04:25:57;99231.25;;;8.15;72.47
62402;BME280;48440;51.224;22.506;2022-09-24T04:28:27;99233.84;;;8.10;73.13
62402;BME280;48440;51.224;22.506;2022-09-24T04:30:52;99235.50;;;8.11;73.17
62402;BME280;48440;51.224;22.506;2022-09-24T04:33:18;99237.03;;;8.07;73.10
62402;BME280;48440;51.224;22.506;2022-09-24T04:35:44;99241.38;;;8.08;73.06
62402;BME280;48440;51.224;22.506;2022-09-24T04:38:10;99241.13;;;8.10;73.22
62402;BME280;48440;51.224;22.506;2022-09-24T04:40:35;99240.56;;;8.08;72.95
62402;BME280;48440;51.224;22.506;2022-09-24T04:43:01;99243.75;;;8.05;73.18
62402;BME280;48440;51.224;22.506;2022-09-24T04:45:28;99241.88;;;8.05;73.17
62402;BME280;48440;51.224;22.506;2022-09-24T04:47:54;99242.69;;;8.06;73.42
62402;BME280;48440;51.224;22.506;2022-09-24T04:50:24;99248.06;;;8.06;73.14
62402;BME280;48440;51.224;22.506;2022-09-24T04:52:50;99246.13;;;8.01;73.63
62402;BME280;48440;51.224;22.506;2022-09-24T04:55:16;99245.06;;;8.02;73.47
62402;BME280;48440;51.224;22.506;2022-09-24T04:57:42;99243.41;;;8.01;73.54
62402;BME280;48440;51.224;22.506;2022-09-24T05:00:12;99233.78;;;8.05;73.74
62402;BME280;48440;51.224;22.506;2022-09-24T05:02:40;99237.03;;;8.07;73.78
62402;BME280;48440;51.224;22.506;2022-09-24T05:05:06;99242.31;;;8.14;73.91
62402;BME280;48440;51.224;22.506;2022-09-24T05:07:31;99242.88;;;8.16;73.48
62402;BME280;48440;51.224;22.506;2022-09-24T05:09:57;99246.75;;;8.20;73.69
62402;BME280;48440;51.224;22.506;2022-09-24T05:12:23;99242.41;;;8.19;73.76
62402;BME280;48440;51.224;22.506;2022-09-24T05:14:48;99242.16;;;8.21;74.13
62402;BME280;48440;51.224;22.506;2022-09-24T05:17:14;99247.69;;;8.26;74.08
62402;BME280;48440;51.224;22.506;2022-09-24T05:19:40;99239.91;;;8.29;73.92
62402;BME280;48440;51.224;22.506;2022-09-24T05:22:05;99243.69;;;8.28;73.64
62402;BME280;48440;51.224;22.506;2022-09-24T05:24:31;99244.75;;;8.27;73.92
62402;BME280;48440;51.224;22.506;2022-09-24T05:26:56;99246.69;;;8.32;73.61
62402;BME280;48440;51.224;22.506;2022-09-24T05:29:39;99248.84;;;8.30;74.23
62402;BME280;48440;51.224;22.506;2022-09-24T05:32:07;99246.69;;;8.32;74.43
62402;BME280;48440;51.224;22.506;2022-09-24T05:34:33;99242.97;;;8.33;74.40
62402;BME280;48440;51.224;22.506;2022-09-24T05:37:00;99242.97;;;8.33;74.41
62402;BME280;48440;51.224;22.506;2022-09-24T05:39:26;99249.88;;;8.40;74.11
62402;BME280;48440;51.224;22.506;2022-09-24T05:41:52;99252.91;;;8.44;74.28
62402;BME280;48440;51.224;22.506;2022-09-24T05:44:18;99252.44;;;8.47;74.15
62402;BME280;48440;51.224;22.506;2022-09-24T05:46:47;99258.28;;;8.56;73.85
62402;BME280;48440;51.224;22.506;2022-09-24T05:49:13;99255.06;;;8.59;73.95
62402;BME280;48440;51.224;22.506;2022-09-24T05:51:38;99252.66;;;8.57;74.48
62402;BME280;48440;51.224;22.506;2022-09-24T05:54:04;99248.59;;;8.60;74.34
62402;BME280;48440;51.224;22.506;2022-09-24T05:56:29;99255.16;;;8.64;74.21
62402;BME280;48440;51.224;22.506;2022-09-24T05:58:55;99252.09;;;8.72;74.12
62402;BME280;48440;51.224;22.506;2022-09-24T06:01:21;99252.56;;;8.69;74.02
62402;BME280;48440;51.224;22.506;2022-09-24T06:03:46;99251.16;;;8.66;74.07
62402;BME280;48440;51.224;22.506;2022-09-24T06:06:12;99251.25;;;8.71;73.77
62402;BME280;48440;51.224;22.506;2022-09-24T06:08:38;99255.13;;;8.75;73.87
62402;BME280;48440;51.224;22.506;2022-09-24T06:11:05;99251.59;;;8.75;73.75
62402;BME280;48440;51.224;22.506;2022-09-24T06:13:31;99253.81;;;8.78;74.36
62402;BME280;48440;51.224;22.506;2022-09-24T06:16:06;99256.53;;;8.78;73.88
62402;BME280;48440;51.224;22.506;2022-09-24T06:18:40;99261.22;;;8.82;73.81
62402;BME280;48440;51.224;22.506;2022-09-24T06:21:10;99261.28;;;8.88;73.33
62402;BME280;48440;51.224;22.506;2022-09-24T06:23:37;99263.50;;;8.91;73.67
62402;BME280;48440;51.224;22.506;2022-09-24T06:26:04;99268.75;;;8.97;73.67
62402;BME280;48440;51.224;22.506;2022-09-24T06:28:32;99268.75;;;8.97;73.23
62402;BME280;48440;51.224;22.506;2022-09-24T06:30:59;99272.28;;;8.98;73.76
62402;BME280;48440;51.224;22.506;2022-09-24T06:33:24;99273.69;;;9.00;73.10
62402;BME280;48440;51.224;22.506;2022-09-24T06:35:50;99271.06;;;9.05;73.22
62402;BME280;48440;51.224;22.506;2022-09-24T06:38:17;99279.53;;;9.09;73.28
62402;BME280;48440;51.224;22.506;2022-09-24T06:40:44;99270.06;;;9.11;73.73
62402;BME280;48440;51.224;22.506;2022-09-24T06:43:11;99279.25;;;9.10;74.06
62402;BME280;48440;51.224;22.506;2022-09-24T06:45:38;99284.41;;;9.12;73.59
62402;BME280;48440;51.224;22.506;2022-09-24T06:48:05;99285.56;;;9.16;73.71
62402;BME280;48440;51.224;22.506;2022-09-24T06:50:32;99289.94;;;9.17;73.60
62402;BME280;48440;51.224;22.506;2022-09-24T06:52:59;99288.84;;;9.18;73.16
62402;BME280;48440;51.224;22.506;2022-09-24T06:55:24;99295.66;;;9.21;73.42
62402;BME280;48440;51.224;22.506;2022-09-24T06:58:00;99297.88;;;9.24;73.34
62402;BME280;48440;51.224;22.506;2022-09-24T07:00:26;99294.69;;;9.27;73.34
62402;BME280;48440;51.224;22.506;2022-09-24T07:02:51;99298.63;;;9.36;73.57
62402;BME280;48440;51.224;22.506;2022-09-24T07:05:17;99304.34;;;9.39;73.27
62402;BME280;48440;51.224;22.506;2022-09-24T07:07:42;99300.91;;;9.44;73.22
62402;BME280;48440;51.224;22.506;2022-09-24T07:10:08;99296.16;;;9.51;73.01
62402;BME280;48440;51.224;22.506;2022-09-24T07:12:35;99296.56;;;9.60;73.37
62402;BME280;48440;51.224;22.506;2022-09-24T07:15:01;99297.28;;;9.72;72.81
62402;BME280;48440;51.224;22.506;2022-09-24T07:17:28;99291.50;;;9.85;72.44
62402;BME280;48440;51.224;22.506;2022-09-24T07:19:54;99288.09;;;9.95;72.44
62402;BME280;48440;51.224;22.506;2022-09-24T07:22:20;99296.47;;;10.10;71.41
62402;BME280;48440;51.224;22.506;2022-09-24T07:24:46;99291.50;;;10.24;71.23
62402;BME280;48440;51.224;22.506;2022-09-24T07:27:12;99291.84;;;10.54;71.16
62402;BME280;48440;51.224;22.506;2022-09-24T07:29:39;99283.72;;;10.81;70.75
62402;BME280;48440;51.224;22.506;2022-09-24T07:32:05;99291.59;;;11.09;69.75
62402;BME280;48440;51.224;22.506;2022-09-24T07:34:30;99284.13;;;11.27;68.75
62402;BME280;48440;51.224;22.506;2022-09-24T07:36:56;99292.84;;;12.08;68.09
62402;BME280;48440;51.224;22.506;2022-09-24T07:39:23;99296.38;;;13.01;66.20
62402;BME280;48440;51.224;22.506;2022-09-24T07:41:49;99298.06;;;13.53;63.32
62402;BME280;48440;51.224;22.506;2022-09-24T07:44:20;99295.88;;;13.55;62.18
62402;BME280;48440;51.224;22.506;2022-09-24T07:46:48;99294.28;;;13.18;62.34
62402;BME280;48440;51.224;22.506;2022-09-24T07:49:14;99300.19;;;13.05;62.41
62402;BME280;48440;51.224;22.506;2022-09-24T07:51:40;99297.81;;;13.19;62.92
62402;BME280;48440;51.224;22.506;2022-09-24T07:54:05;99296.13;;;13.79;62.55
62402;BME280;48440;51.224;22.506;2022-09-24T07:56:31;99293.84;;;14.11;61.33
62402;BME280;48440;51.224;22.506;2022-09-24T07:58:56;99297.22;;;14.63;58.17
62402;BME280;48440;51.224;22.506;2022-09-24T08:01:22;99295.16;;;15.27;57.46
62402;BME280;48440;51.224;22.506;2022-09-24T08:03:50;99295.69;;;15.64;55.72
62402;BME280;48440;51.224;22.506;2022-09-24T08:06:16;99289.38;;;15.92;55.73
62402;BME280;48440;51.224;22.506;2022-09-24T08:08:42;99294.00;;;15.97;54.68
62402;BME280;48440;51.224;22.506;2022-09-24T08:11:10;99295.28;;;16.04;55.23
62402;BME280;48440;51.224;22.506;2022-09-24T08:13:37;99291.69;;;16.09;53.15
62402;BME280;48440;51.224;22.506;2022-09-24T08:16:03;99289.59;;;16.43;52.95
62402;BME280;48440;51.224;22.506;2022-09-24T08:18:30;99294.28;;;16.85;52.47
62402;BME280;48440;51.224;22.506;2022-09-24T08:21:04;99282.28;;;17.00;51.07
62402;BME280;48440;51.224;22.506;2022-09-24T08:23:34;99290.09;;;17.25;51.25
62402;BME280;48440;51.224;22.506;2022-09-24T08:26:00;99290.25;;;17.34;51.56
62402;BME280;48440;51.224;22.506;2022-09-24T08:28:26;99291.38;;;17.33;50.75
62402;BME280;48440;51.224;22.506;2022-09-24T08:30:58;99293.53;;;17.17;50.50
62402;BME280;48440;51.224;22.506;2022-09-24T08:33:25;99292.34;;;17.23;50.41
62402;BME280;48440;51.224;22.506;2022-09-24T08:35:51;99289.16;;;17.16;49.21
62402;BME280;48440;51.224;22.506;2022-09-24T08:38:16;99296.72;;;17.24;48.85
62402;BME280;48440;51.224;22.506;2022-09-24T08:40:52;99294.88;;;17.52;48.67
62402;BME280;48440;51.224;22.506;2022-09-24T08:46:01;99293.69;;;18.05;47.97
62402;BME280;48440;51.224;22.506;2022-09-24T08:48:50;99287.91;;;18.61;46.67
62402;BME280;48440;51.224;22.506;2022-09-24T08:51:19;99291.81;;;18.82;46.10
62402;BME280;48440;51.224;22.506;2022-09-24T08:54:12;99296.19;;;18.83;45.70
62402;BME280;48440;51.224;22.506;2022-09-24T08:56:42;99293.66;;;18.73;46.21
62402;BME280;48440;51.224;22.506;2022-09-24T09:01:45;99285.13;;;18.75;44.92
62402;BME280;48440;51.224;22.506;2022-09-24T09:09:25;99293.59;;;18.64;45.15
62402;BME280;48440;51.224;22.506;2022-09-24T09:11:58;99297.53;;;18.72;44.60
62402;BME280;48440;51.224;22.506;2022-09-24T09:14:40;99293.25;;;18.80;44.50
62402;BME280;48440;51.224;22.506;2022-09-24T09:17:28;99283.13;;;18.67;44.61
62402;BME280;48440;51.224;22.506;2022-09-24T09:19:57;99286.34;;;18.55;44.36
62402;BME280;48440;51.224;22.506;2022-09-24T09:22:29;99287.47;;;17.99;44.61
62402;BME280;48440;51.224;22.506;2022-09-24T09:25:02;99291.75;;;17.26;45.76
62402;BME280;48440;51.224;22.506;2022-09-24T09:27:28;99293.09;;;16.73;47.40
62402;BME280;48440;51.224;22.506;2022-09-24T09:29:57;99296.63;;;16.31;48.16
62402;BME280;48440;51.224;22.506;2022-09-24T09:35:24;99286.66;;;15.92;49.24
62402;BME280;48440;51.224;22.506;2022-09-24T09:37:57;99286.84;;;16.24;49.65
62402;BME280;48440;51.224;22.506;2022-09-24T09:40:30;99289.91;;;16.42;50.05
62402;BME280;48440;51.224;22.506;2022-09-24T09:43:03;99294.38;;;16.56;50.82
62402;BME280;48440;51.224;22.506;2022-09-24T09:47:59;99279.78;;;16.18;49.65
62402;BME280;48440;51.224;22.506;2022-09-24T09:50:37;99283.00;;;16.02;49.20
62402;BME280;48440;51.224;22.506;2022-09-24T09:53:04;99281.59;;;16.04;48.95
62402;BME280;48440;51.224;22.506;2022-09-24T09:55:39;99287.22;;;15.89;48.99
62402;BME280;48440;51.224;22.506;2022-09-24T10:00:43;99291.19;;;15.78;49.96
62402;BME280;48440;51.224;22.506;2022-09-24T10:03:33;99284.44;;;15.94;49.56
62402;BME280;48440;51.224;22.506;2022-09-24T10:06:02;99279.50;;;15.96;49.68
62402;BME280;48440;51.224;22.506;2022-09-24T10:08:28;99282.00;;;15.92;48.99
62402;BME280;48440;51.224;22.506;2022-09-24T10:10:54;99286.94;;;15.90;48.86
62402;BME280;48440;51.224;22.506;2022-09-24T10:13:21;99279.91;;;15.84;48.82
62402;BME280;48440;51.224;22.506;2022-09-24T10:15:58;99278.84;;;15.80;48.13
62402;BME280;48440;51.224;22.506;2022-09-24T10:20:58;99284.91;;;16.01;49.32
62402;BME280;48440;51.224;22.506;2022-09-24T10:23:38;99281.44;;;16.38;48.99
62402;BME280;48440;51.224;22.506;2022-09-24T10:26:05;99278.44;;;16.82;48.29
62402;BME280;48440;51.224;22.506;2022-09-24T10:28:32;99269.88;;;17.21;47.76
62402;BME280;48440;51.224;22.506;2022-09-24T10:31:22;99281.72;;;17.36;46.30
62402;BME280;48440;51.224;22.506;2022-09-24T10:33:53;99269.13;;;17.16;44.90
62402;BME280;48440;51.224;22.506;2022-09-24T10:36:21;99264.41;;;17.21;46.37
62402;BME280;48440;51.224;22.506;2022-09-24T10:39:00;99271.66;;;17.31;45.99
62402;BME280;48440;51.224;22.506;2022-09-24T10:41:28;99272.38;;;17.37;46.63
62402;BME280;48440;51.224;22.506;2022-09-24T10:43:55;99265.69;;;17.43;45.82
62402;BME280;48440;51.224;22.506;2022-09-24T10:51:53;99263.78;;;16.31;47.54
62402;BME280;48440;51.224;22.506;2022-09-24T10:57:57;99267.22;;;15.65;48.40
62402;BME280;48440;51.224;22.506;2022-09-24T11:00:37;99269.56;;;15.47;48.97
62402;BME280;48440;51.224;22.506;2022-09-24T11:11:53;99269.84;;;14.78;50.68
62402;BME280;48440;51.224;22.506;2022-09-24T11:14:45;99267.66;;;14.75;51.36
62402;BME280;48440;51.224;22.506;2022-09-24T11:23:17;99276.69;;;14.75;51.65
62402;BME280;48440;51.224;22.506;2022-09-24T11:25:49;99275.84;;;14.80;52.40
62402;BME280;48440;51.224;22.506;2022-09-24T11:45:01;99259.38;;;15.24;51.33
62402;BME280;48440;51.224;22.506;2022-09-24T11:55:33;99251.34;;;15.04;50.11
62402;BME280;48440;51.224;22.506;2022-09-24T12:04:21;99250.16;;;15.15;50.88
62402;BME280;48440;51.224;22.506;2022-09-24T12:07:09;99246.84;;;15.18;50.53
62402;BME280;48440;51.224;22.506;2022-09-24T12:09:50;99239.97;;;15.25;50.08
62402;BME280;48440;51.224;22.506;2022-09-24T12:12:44;99239.97;;;15.25;50.30
62402;BME280;48440;51.224;22.506;2022-09-24T12:16:02;99232.03;;;15.24;49.99
62402;BME280;48440;51.224;22.506;2022-09-24T12:18:53;99226.00;;;15.27;50.77
62402;BME280;48440;51.224;22.506;2022-09-24T12:21:49;99229.41;;;15.09;49.39
62402;BME280;48440;51.224;22.506;2022-09-24T12:24:53;99226.97;;;15.07;50.54
62402;BME280;48440;51.224;22.506;2022-09-24T12:30:40;99222.63;;;15.06;48.89
62402;BME280;48440;51.224;22.506;2022-09-24T12:37:28;99221.28;;;15.04;48.50
62402;BME280;48440;51.224;22.506;2022-09-24T12:43:31;99219.72;;;14.92;50.46
62402;BME280;48440;51.224;22.506;2022-09-24T12:46:02;99211.81;;;14.91;50.26
62402;BME280;48440;51.224;22.506;2022-09-24T12:48:37;99213.16;;;14.93;50.83
62402;BME280;48440;51.224;22.506;2022-09-24T12:51:05;99212.06;;;14.94;51.95
62402;BME280;48440;51.224;22.506;2022-09-24T12:53:54;99211.00;;;14.90;50.38
62402;BME280;48440;51.224;22.506;2022-09-24T12:56:41;99212.06;;;14.94;50.42
62402;BME280;48440;51.224;22.506;2022-09-24T12:59:44;99210.97;;;14.96;51.23
62402;BME280;48440;51.224;22.506;2022-09-24T13:02:30;99210.69;;;14.97;50.76
62402;BME280;48440;51.224;22.506;2022-09-24T13:11:03;99202.00;;;14.90;49.51
62402;BME280;48440;51.224;22.506;2022-09-24T13:16:47;99208.25;;;14.90;50.42
62402;BME280;48440;51.224;22.506;2022-09-24T13:22:25;99208.41;;;14.75;50.46
62402;BME280;48440;51.224;22.506;2022-09-24T13:28:27;99201.59;;;14.68;51.40
62402;BME280;48440;51.224;22.506;2022-09-24T13:34:17;99200.84;;;14.57;50.43
62402;BME280;48440;51.224;22.506;2022-09-24T13:37:09;99197.09;;;14.53;50.27
62402;BME280;48440;51.224;22.506;2022-09-24T13:40:14;99201.22;;;14.45;50.97
62402;BME280;48440;51.224;22.506;2022-09-24T13:43:03;99199.59;;;14.44;51.26
62402;BME280;48440;51.224;22.506;2022-09-24T13:45:32;99198.47;;;14.45;51.66
62402;BME280;48440;51.224;22.506;2022-09-24T13:48:04;99196.03;;;14.44;52.01
62402;BME280;48440;51.224;22.506;2022-09-24T13:50:47;99203.41;;;14.38;51.09
62402;BME280;48440;51.224;22.506;2022-09-24T13:53:41;99202.03;;;14.36;51.21
62402;BME280;48440;51.224;22.506;2022-09-24T13:56:16;99199.34;;;14.31;51.36
62402;BME280;48440;51.224;22.506;2022-09-24T13:58:42;99189.81;;;14.28;51.66
62402;BME280;48440;51.224;22.506;2022-09-24T14:01:17;99195.06;;;14.19;51.58
62402;BME280;48440;51.224;22.506;2022-09-24T14:04:13;99190.41;;;14.20;51.96
62402;BME280;48440;51.224;22.506;2022-09-24T14:07:27;99197.78;;;14.19;52.25
62402;BME280;48440;51.224;22.506;2022-09-24T14:10:28;99193.69;;;14.17;52.79
62402;BME280;48440;51.224;22.506;2022-09-24T14:13:13;99192.06;;;14.16;53.00
62402;BME280;48440;51.224;22.506;2022-09-24T14:19:11;99182.53;;;14.08;51.75
62402;BME280;48440;51.224;22.506;2022-09-24T14:21:51;99183.63;;;14.07;52.06
62402;BME280;48440;51.224;22.506;2022-09-24T14:27:56;99180.94;;;14.02;53.64
62402;BME280;48440;51.224;22.506;2022-09-24T14:30:28;99182.06;;;14.01;53.88
62402;BME280;48440;51.224;22.506;2022-09-24T14:39:09;99188.06;;;13.98;53.02
62402;BME280;48440;51.224;22.506;2022-09-24T14:41:42;99184.25;;;13.99;53.98
62402;BME280;48440;51.224;22.506;2022-09-24T14:44:26;99187.25;;;13.92;53.84
62402;BME280;48440;51.224;22.506;2022-09-24T14:47:02;99189.44;;;13.96;53.58
62402;BME280;48440;51.224;22.506;2022-09-24T14:50:25;99190.53;;;13.95;53.18
62402;BME280;48440;51.224;22.506;2022-09-24T14:52:55;99192.72;;;13.92;51.04
62402;BME280;48440;51.224;22.506;2022-09-24T14:55:41;99193.00;;;13.91;51.24
62402;BME280;48440;51.224;22.506;2022-09-24T14:58:32;99181.53;;;13.89;51.82
62402;BME280;48440;51.224;22.506;2022-09-24T15:01:09;99182.91;;;13.86;51.13
62402;BME280;48440;51.224;22.506;2022-09-24T15:03:40;99185.09;;;13.84;51.21
62402;BME280;48440;51.224;22.506;2022-09-24T15:06:18;99188.38;;;13.81;51.53
62402;BME280;48440;51.224;22.506;2022-09-24T15:08:55;99189.53;;;13.75;51.67
62402;BME280;48440;51.224;22.506;2022-09-24T15:11:24;99199.59;;;13.75;51.85
62402;BME280;48440;51.224;22.506;2022-09-24T15:16:34;99200.16;;;13.67;52.41
62402;BME280;48440;51.224;22.506;2022-09-24T15:21:32;99193.63;;;13.57;53.55
62402;BME280;48440;51.224;22.506;2022-09-24T15:23:57;99192.28;;;13.55;53.48
62402;BME280;48440;51.224;22.506;2022-09-24T15:26:27;99194.22;;;13.49;53.66
62402;BME280;48440;51.224;22.506;2022-09-24T15:28:53;99196.69;;;13.46;53.77
62402;BME280;48440;51.224;22.506;2022-09-24T15:31:20;99191.78;;;13.43;53.74
62402;BME280;48440;51.224;22.506;2022-09-24T15:33:47;99191.50;;;13.39;54.55
62402;BME280;48440;51.224;22.506;2022-09-24T15:36:12;99192.34;;;13.35;54.96